Time;durP1;ratioP1;P1;durP2;ratioP2;P2;SDS_P1;SDS_P2;PMS_P1;PMS_P2;Temp;Humidity;BMP_temperature;BMP_pressure;BME280_temperature;BME280_humidity;BME280_pressure;Samples;Min_cycle;Max_cycle;Signal;HPM_P1;HPM_P2
2022/01/27 00:05:25;;;;;;;72.67;40.83;;;4.90;99.90;;;;;;6216521;23;20367;-55
2022/01/27 00:13:10;;;;;;;74.47;40.67;;;5.00;99.90;;;;;;6225436;23;20355;-56
2022/01/27 00:15:38;;;;;;;73.90;40.28;;;5.00;99.90;;;;;;6214703;23;20368;-55
2022/01/27 00:18:12;;;;;;;74.90;41.40;;;5.00;99.90;;;;;;6214311;23;20471;-56
2022/01/27 00:20:37;;;;;;;75.30;42.03;;;5.00;99.90;;;;;;6213579;23;20473;-55
2022/01/27 00:23:03;;;;;;;78.30;43.13;;;5.00;99.90;;;;;;6208833;23;20363;-52
2022/01/27 00:25:28;;;;;;;76.50;43.07;;;4.90;99.90;;;;;;6209484;23;20367;-55
2022/01/27 00:27:54;;;;;;;75.85;43.00;;;5.00;99.90;;;;;;6207264;23;20351;-52
2022/01/27 00:30:20;;;;;;;80.97;43.03;;;5.00;99.90;;;;;;6207294;23;20351;-54
2022/01/27 00:32:45;;;;;;;78.33;43.37;;;4.90;99.90;;;;;;6208352;23;20390;-51
2022/01/27 00:35:11;;;;;;;74.87;43.17;;;4.90;99.90;;;;;;6210080;23;20379;-54
2022/01/27 00:37:36;;;;;;;78.32;43.50;;;4.90;99.90;;;;;;6211942;23;20698;-51
2022/01/27 00:40:04;;;;;;;77.03;43.80;;;4.90;99.90;;;;;;6210657;23;20356;-53
2022/01/27 00:42:31;;;;;;;83.00;44.42;;;5.00;99.90;;;;;;6211322;23;20348;-51
2022/01/27 00:44:58;;;;;;;82.23;43.27;;;5.00;99.90;;;;;;6211384;23;20374;-52
2022/01/27 00:47:24;;;;;;;77.78;44.33;;;5.00;99.90;;;;;;6212680;23;20359;-51
2022/01/27 00:49:49;;;;;;;74.63;43.05;;;5.00;99.90;;;;;;6213109;23;20425;-53
2022/01/27 00:52:22;;;;;;;74.17;43.37;;;5.00;99.90;;;;;;6213923;23;20399;-52
2022/01/27 00:54:50;;;;;;;69.47;41.65;;;5.00;99.90;;;;;;6213889;23;20371;-53
2022/01/27 00:57:35;;;;;;;76.95;43.25;;;5.10;99.90;;;;;;6213546;23;20343;-53
2022/01/27 01:00:04;;;;;;;77.30;43.70;;;5.10;99.90;;;;;;6215146;23;20347;-53
2022/01/27 01:05:33;;;;;;;73.60;44.37;;;5.10;99.90;;;;;;6218830;23;20424;-57
2022/01/27 01:08:17;;;;;;;75.43;44.17;;;5.10;99.90;;;;;;6213397;23;20442;-55
2022/01/27 01:16:20;;;;;;;71.43;44.58;;;5.10;99.90;;;;;;6214783;23;20615;-54
2022/01/27 01:18:56;;;;;;;75.55;44.55;;;5.10;99.90;;;;;;6212513;23;20355;-54
2022/01/27 01:32:25;;;;;;;68.75;43.13;;;5.00;99.90;;;;;;6223083;23;20501;-51
2022/01/27 01:34:51;;;;;;;76.90;46.23;;;4.90;99.90;;;;;;6212599;23;20379;-53
2022/01/27 01:37:18;;;;;;;79.47;47.17;;;4.90;99.90;;;;;;6212467;23;20415;-57
2022/01/27 01:39:44;;;;;;;75.28;46.15;;;4.90;99.90;;;;;;6213474;23;20425;-52
2022/01/27 01:42:11;;;;;;;74.50;45.90;;;4.90;99.90;;;;;;6213965;23;20347;-58
2022/01/27 01:44:38;;;;;;;70.47;44.43;;;5.00;99.90;;;;;;6215143;23;20662;-55
2022/01/27 01:47:04;;;;;;;72.65;45.28;;;5.00;99.90;;;;;;6213520;23;20355;-55
2022/01/27 01:49:30;;;;;;;72.65;45.33;;;5.00;99.90;;;;;;6214621;23;20374;-57
2022/01/27 01:51:58;;;;;;;74.68;45.35;;;5.00;99.90;;;;;;6214134;23;20391;-56
2022/01/27 01:54:24;;;;;;;73.93;45.33;;;5.00;99.90;;;;;;6215829;23;20343;-58
2022/01/27 01:56:50;;;;;;;70.65;44.05;;;5.00;99.90;;;;;;6214468;23;20343;-54
2022/01/27 01:59:16;;;;;;;68.73;43.47;;;5.00;99.90;;;;;;6211442;23;20359;-56
2022/01/27 02:01:42;;;;;;;69.20;42.93;;;5.00;99.90;;;;;;6209251;23;20356;-57
2022/01/27 02:04:10;;;;;;;67.82;42.30;;;5.00;99.90;;;;;;6211851;23;20375;-53
2022/01/27 02:09:26;;;;;;;67.95;42.80;;;5.10;99.90;;;;;;6210628;23;20366;-53
2022/01/27 02:20:07;;;;;;;58.70;40.00;;;5.10;99.90;;;;;;6212796;23;20359;-56
2022/01/27 02:22:33;;;;;;;58.03;37.97;;;5.10;99.90;;;;;;6212159;23;20535;-54
2022/01/27 02:24:58;;;;;;;55.47;37.05;;;5.20;99.90;;;;;;6211954;23;20355;-57
2022/01/27 02:27:24;;;;;;;55.57;36.30;;;5.20;99.90;;;;;;6212687;23;20366;-58
2022/01/27 02:29:49;;;;;;;54.90;35.83;;;5.20;99.90;;;;;;6211344;23;20355;-53
2022/01/27 02:32:18;;;;;;;54.28;35.25;;;5.20;99.90;;;;;;6210387;23;20420;-55
2022/01/27 02:34:44;;;;;;;50.42;35.20;;;5.20;99.90;;;;;;6211747;23;20372;-54
2022/01/27 02:37:11;;;;;;;50.70;33.97;;;5.20;99.90;;;;;;6212626;23;20363;-57
2022/01/27 02:39:36;;;;;;;48.88;33.92;;;5.20;99.90;;;;;;6210793;23;20390;-56
2022/01/27 02:42:20;;;;;;;49.45;32.35;;;5.20;99.90;;;;;;6213558;23;20677;-52
2022/01/27 02:44:45;;;;;;;46.95;33.35;;;5.20;99.90;;;;;;6213323;23;20694;-57
2022/01/27 02:47:15;;;;;;;49.37;33.97;;;5.30;99.90;;;;;;6214081;23;20363;-58
2022/01/27 02:49:40;;;;;;;46.70;32.53;;;5.30;99.90;;;;;;6214195;23;20379;-53
2022/01/27 02:52:06;;;;;;;49.38;33.58;;;5.30;99.90;;;;;;6212450;23;20351;-54
2022/01/27 02:54:32;;;;;;;48.05;32.33;;;5.30;99.90;;;;;;6213555;23;20361;-58
2022/01/27 02:56:57;;;;;;;48.03;32.50;;;5.30;99.90;;;;;;6214274;23;20364;-52
2022/01/27 02:59:32;;;;;;;49.37;32.83;;;5.30;99.90;;;;;;6216513;23;20398;-57
2022/01/27 03:01:59;;;;;;;47.42;31.48;;;5.30;99.90;;;;;;6215362;23;20661;-53
2022/01/27 03:04:25;;;;;;;46.70;31.77;;;5.30;99.90;;;;;;6210861;23;20367;-53
2022/01/27 03:06:51;;;;;;;49.90;31.58;;;5.30;99.90;;;;;;6212418;23;20383;-53
2022/01/27 03:09:17;;;;;;;49.03;30.90;;;5.40;99.90;;;;;;6212443;23;20355;-54
2022/01/27 03:11:57;;;;;;;49.53;32.50;;;5.40;99.90;;;;;;6211381;23;20434;-55
2022/01/27 03:14:24;;;;;;;48.27;31.73;;;5.40;99.90;;;;;;6213723;23;20396;-58
2022/01/27 03:16:54;;;;;;;48.63;31.55;;;5.40;99.90;;;;;;6212749;23;20446;-56
2022/01/27 03:19:19;;;;;;;50.17;31.20;;;5.40;99.90;;;;;;6211843;23;20364;-57
2022/01/27 03:21:45;;;;;;;47.40;31.87;;;5.40;99.90;;;;;;6212911;23;20398;-56
2022/01/27 03:24:10;;;;;;;46.30;31.03;;;5.40;99.90;;;;;;6212095;23;20340;-54
2022/01/27 03:26:36;;;;;;;48.03;31.38;;;5.40;99.90;;;;;;6210758;23;20415;-55
2022/01/27 03:29:02;;;;;;;48.97;32.77;;;5.40;99.90;;;;;;6212134;23;20534;-51
2022/01/27 03:31:28;;;;;;;47.17;30.33;;;5.40;99.90;;;;;;6212353;23;20506;-51
2022/01/27 03:33:54;;;;;;;46.60;29.87;;;5.40;99.90;;;;;;6212419;23;20355;-50
2022/01/27 03:36:20;;;;;;;42.95;29.10;;;5.40;99.90;;;;;;6214510;23;20459;-52
2022/01/27 03:38:46;;;;;;;44.77;30.43;;;5.40;99.90;;;;;;6212649;23;20347;-55
2022/01/27 03:41:18;;;;;;;44.58;30.52;;;5.40;99.90;;;;;;6213016;23;20356;-52
2022/01/27 03:43:43;;;;;;;47.95;29.85;;;5.50;99.90;;;;;;6211745;23;20351;-52
2022/01/27 03:46:09;;;;;;;50.15;31.52;;;5.40;99.90;;;;;;6211544;23;20359;-57
2022/01/27 03:48:35;;;;;;;46.53;30.43;;;5.40;99.90;;;;;;6212104;23;20642;-57
2022/01/27 03:51:00;;;;;;;44.90;30.53;;;5.40;99.90;;;;;;6212068;23;20454;-52
2022/01/27 03:53:26;;;;;;;46.10;31.57;;;5.40;99.90;;;;;;6211883;23;20387;-52
2022/01/27 03:55:51;;;;;;;47.50;31.50;;;5.30;99.90;;;;;;6211283;23;20785;-58
2022/01/27 03:58:17;;;;;;;50.70;32.87;;;5.30;99.90;;;;;;6209898;23;20372;-53
2022/01/27 04:00:43;;;;;;;50.43;33.33;;;5.30;99.90;;;;;;6208777;23;20348;-54
2022/01/27 04:03:11;;;;;;;50.33;33.60;;;5.30;99.90;;;;;;6209634;23;20419;-56
2022/01/27 04:05:41;;;;;;;53.67;33.90;;;5.20;99.90;;;;;;6210901;23;20359;-57
2022/01/27 04:08:15;;;;;;;53.28;34.55;;;5.20;99.90;;;;;;6207424;23;20366;-54
2022/01/27 04:10:42;;;;;;;52.13;34.15;;;5.20;99.90;;;;;;6207589;23;20348;-58
2022/01/27 04:13:08;;;;;;;50.22;33.45;;;5.20;99.90;;;;;;6209130;23;20442;-56
2022/01/27 04:15:35;;;;;;;55.22;35.25;;;5.10;99.90;;;;;;6207214;23;20478;-56
2022/01/27 04:18:00;;;;;;;55.30;36.30;;;5.10;99.90;;;;;;6211789;23;20347;-54
2022/01/27 04:20:26;;;;;;;55.63;36.20;;;5.10;99.90;;;;;;6210278;23;20410;-56
2022/01/27 04:22:52;;;;;;;56.33;35.90;;;5.10;99.90;;;;;;6210647;23;20390;-53
2022/01/27 04:25:17;;;;;;;58.42;36.25;;;5.10;99.90;;;;;;6212210;23;20420;-56
2022/01/27 04:27:48;;;;;;;55.83;35.38;;;5.10;99.90;;;;;;6211390;23;20602;-52
2022/01/27 04:30:17;;;;;;;56.92;36.78;;;5.00;99.90;;;;;;6208832;23;20447;-56
2022/01/27 04:32:49;;;;;;;58.65;36.28;;;5.00;99.90;;;;;;6210520;23;20351;-55
2022/01/27 04:35:20;;;;;;;58.22;37.65;;;5.00;99.90;;;;;;6208628;23;20820;-58
2022/01/27 04:38:03;;;;;;;56.13;35.55;;;5.00;99.90;;;;;;6209066;23;20446;-58
2022/01/27 04:40:36;;;;;;;54.05;34.58;;;4.90;99.90;;;;;;6207936;23;20348;-58
2022/01/27 04:45:40;;;;;;;51.78;35.13;;;;;;;;;;6220028;23;20418;-58
2022/01/27 04:48:11;;;;;;;51.22;35.25;;;4.90;99.90;;;;;;6208327;23;20609;-58
2022/01/27 04:50:38;;;;;;;53.13;35.33;;;4.90;99.90;;;;;;6206380;23;20372;-54
2022/01/27 04:53:07;;;;;;;56.85;36.80;;;4.90;99.90;;;;;;6181198;23;20370;-56
2022/01/27 04:55:32;;;;;;;54.90;35.65;;;4.90;99.90;;;;;;6203931;23;20740;-58
2022/01/27 04:58:09;;;;;;;54.00;34.15;;;4.90;99.90;;;;;;6206647;23;20375;-54
2022/01/27 05:00:35;;;;;;;50.33;33.83;;;4.90;99.90;;;;;;6208874;23;20352;-57
2022/01/27 05:03:03;;;;;;;50.83;34.28;;;4.90;99.90;;;;;;6208076;23;20343;-52
2022/01/27 05:05:28;;;;;;;51.88;34.63;;;4.90;99.90;;;;;;6207444;23;20525;-57
2022/01/27 05:07:57;;;;;;;56.92;36.38;;;4.90;99.90;;;;;;6207148;23;20770;-59
2022/01/27 05:10:27;;;;;;;51.72;34.42;;;4.90;99.90;;;;;;6211146;23;20377;-56
2022/01/27 05:13:00;;;;;;;53.65;35.10;;;4.80;99.90;;;;;;6211431;23;20414;-55
2022/01/27 05:15:25;;;;;;;50.78;35.20;;;4.80;99.90;;;;;;6209338;23;20452;-54
2022/01/27 05:17:51;;;;;;;55.53;34.75;;;4.80;99.90;;;;;;6209899;23;20745;-56
2022/01/27 05:20:17;;;;;;;49.27;35.00;;;4.80;99.90;;;;;;6209225;23;20390;-56
2022/01/27 05:22:42;;;;;;;52.57;34.77;;;4.80;99.90;;;;;;6208371;23;20686;-58
2022/01/27 05:25:08;;;;;;;57.80;36.40;;;4.80;99.90;;;;;;6210936;23;20344;-57
2022/01/27 05:27:33;;;;;;;57.13;36.78;;;4.80;99.90;;;;;;6207222;23;20361;-56
2022/01/27 05:29:59;;;;;;;59.38;36.55;;;4.80;99.90;;;;;;6207891;23;20681;-57
2022/01/27 05:32:24;;;;;;;55.23;36.07;;;4.80;99.90;;;;;;6208534;23;20362;-58
2022/01/27 05:34:50;;;;;;;54.93;34.73;;;4.80;99.90;;;;;;6208288;23;20410;-56
2022/01/27 05:37:15;;;;;;;58.10;35.30;;;4.80;99.90;;;;;;6209259;23;20355;-56
2022/01/27 05:39:41;;;;;;;53.13;34.95;;;4.70;99.90;;;;;;6208485;23;20340;-56
2022/01/27 05:42:07;;;;;;;53.77;35.43;;;4.70;99.90;;;;;;6209605;23;20743;-53
2022/01/27 05:44:32;;;;;;;52.03;34.93;;;4.80;99.90;;;;;;6209107;23;20344;-54
2022/01/27 05:46:58;;;;;;;51.73;35.20;;;4.70;99.90;;;;;;6206835;23;20639;-56
2022/01/27 05:49:24;;;;;;;49.13;33.58;;;4.70;99.90;;;;;;6208315;23;20505;-55
2022/01/27 05:51:49;;;;;;;57.23;33.93;;;4.70;99.90;;;;;;6207293;23;20348;-56
2022/01/27 05:54:15;;;;;;;49.75;33.33;;;4.80;99.90;;;;;;6204882;23;20344;-57
2022/01/27 05:56:41;;;;;;;45.20;31.38;;;4.80;99.90;;;;;;6204807;23;20363;-57
2022/01/27 05:59:06;;;;;;;47.15;31.35;;;4.80;99.90;;;;;;6203368;23;20344;-54
2022/01/27 06:01:32;;;;;;;47.13;31.03;;;4.80;99.90;;;;;;6201569;23;20344;-55
2022/01/27 06:03:58;;;;;;;42.72;30.67;;;4.80;99.90;;;;;;6202863;23;20372;-54
2022/01/27 06:06:23;;;;;;;48.90;32.03;;;4.70;99.90;;;;;;6201645;23;20658;-56
2022/01/27 06:08:49;;;;;;;48.20;31.57;;;4.70;99.90;;;;;;6201129;23;20351;-55
2022/01/27 06:11:14;;;;;;;44.83;30.23;;;4.70;99.90;;;;;;6202987;23;20421;-53
2022/01/27 06:13:40;;;;;;;45.70;30.77;;;4.70;99.90;;;;;;6203909;23;20583;-57
2022/01/27 06:16:10;;;;;;;46.10;30.80;;;4.70;99.90;;;;;;6206133;23;20391;-55
2022/01/27 06:18:39;;;;;;;43.50;30.63;;;4.70;99.90;;;;;;6207284;23;20359;-58
2022/01/27 06:21:07;;;;;;;45.30;30.15;;;4.80;99.90;;;;;;6206946;23;20379;-57
2022/01/27 06:23:33;;;;;;;41.58;28.52;;;4.80;99.90;;;;;;6208669;23;20364;-58
2022/01/27 06:26:03;;;;;;;47.50;29.73;;;4.80;99.90;;;;;;6209729;23;20345;-58
2022/01/27 06:28:28;;;;;;;38.30;27.45;;;4.80;99.90;;;;;;6209759;23;20824;-57
2022/01/27 06:30:54;;;;;;;44.50;29.88;;;5.00;99.90;;;;;;6209604;23;20351;-56
2022/01/27 06:33:20;;;;;;;41.97;29.33;;;4.80;99.90;;;;;;6206662;23;20363;-57
2022/01/27 06:35:46;;;;;;;43.30;28.92;;;4.80;99.90;;;;;;6203919;23;20383;-55
2022/01/27 06:38:11;;;;;;;47.10;30.08;;;4.80;99.90;;;;;;6202968;23;20657;-56
2022/01/27 06:40:36;;;;;;;43.87;30.20;;;4.70;99.90;;;;;;6201497;23;20370;-55
2022/01/27 06:43:02;;;;;;;42.87;29.03;;;4.80;99.90;;;;;;6201880;23;20352;-52
2022/01/27 06:45:28;;;;;;;46.78;29.92;;;4.80;99.90;;;;;;6202913;23;20511;-56
2022/01/27 06:47:53;;;;;;;45.23;30.03;;;4.80;99.90;;;;;;6205679;23;20344;-56
2022/01/27 06:50:19;;;;;;;43.70;30.23;;;4.80;99.90;;;;;;6204869;23;20371;-58
2022/01/27 06:52:45;;;;;;;49.17;30.53;;;4.80;99.90;;;;;;6205079;23;20729;-57
2022/01/27 06:55:12;;;;;;;43.40;29.45;;;4.80;99.90;;;;;;6205994;23;20376;-52
2022/01/27 06:57:38;;;;;;;41.70;28.83;;;4.80;99.90;;;;;;6204932;23;20348;-56
2022/01/27 07:00:06;;;;;;;45.60;30.17;;;4.80;99.90;;;;;;6207461;23;20382;-57
2022/01/27 07:02:31;;;;;;;44.13;29.60;;;4.80;99.90;;;;;;6206731;23;20382;-53
2022/01/27 07:04:57;;;;;;;45.80;31.05;;;4.80;99.90;;;;;;6205715;23;20367;-55
2022/01/27 07:07:23;;;;;;;42.67;29.70;;;4.80;99.90;;;;;;6207073;23;20355;-56
2022/01/27 07:09:48;;;;;;;46.13;29.93;;;4.80;99.90;;;;;;6206951;23;20361;-57
2022/01/27 07:12:14;;;;;;;41.33;28.63;;;4.80;99.90;;;;;;6205572;23;20654;-58
2022/01/27 07:14:39;;;;;;;37.05;26.48;;;4.80;99.90;;;;;;6206233;23;20355;-58
2022/01/27 07:17:05;;;;;;;39.63;27.67;;;4.90;99.90;;;;;;6202547;23;20491;-59
2022/01/27 07:19:31;;;;;;;40.27;27.13;;;4.90;99.90;;;;;;6204461;23;20776;-57
2022/01/27 07:21:57;;;;;;;37.90;26.70;;;4.90;99.90;;;;;;6199792;23;20375;-59
2022/01/27 07:24:22;;;;;;;39.97;27.30;;;4.90;99.90;;;;;;6202416;23;20610;-58
2022/01/27 07:26:48;;;;;;;43.00;27.93;;;4.90;99.90;;;;;;6203215;23;20351;-58
2022/01/27 07:29:13;;;;;;;38.03;26.43;;;4.80;99.90;;;;;;6201729;23;20417;-56
2022/01/27 07:31:39;;;;;;;35.97;25.77;;;4.80;99.90;;;;;;6203827;23;20348;-53
2022/01/27 07:34:05;;;;;;;37.87;26.13;;;4.90;99.90;;;;;;6203494;23;20352;-56
2022/01/27 07:36:31;;;;;;;40.42;27.33;;;4.90;99.90;;;;;;6203716;23;20513;-58
2022/01/27 07:38:57;;;;;;;35.17;24.30;;;4.90;99.90;;;;;;6203450;23;20702;-55
2022/01/27 07:41:23;;;;;;;37.17;25.30;;;4.90;99.90;;;;;;6199623;23;20348;-57
2022/01/27 07:43:49;;;;;;;39.75;26.17;;;4.90;99.90;;;;;;6201533;23;20352;-55
2022/01/27 07:46:15;;;;;;;35.22;24.60;;;4.90;99.90;;;;;;6201510;23;20418;-58
2022/01/27 07:48:41;;;;;;;38.55;25.58;;;4.90;99.90;;;;;;6203219;23;20615;-58
2022/01/27 07:51:10;;;;;;;36.42;23.42;;;4.90;99.90;;;;;;6202573;23;20360;-57
2022/01/27 07:53:37;;;;;;;38.40;24.67;;;4.90;99.90;;;;;;6201291;23;20657;-56
2022/01/27 07:56:04;;;;;;;36.60;23.45;;;4.90;99.90;;;;;;6202765;23;20587;-57
2022/01/27 07:58:31;;;;;;;34.30;23.77;;;4.90;99.90;;;;;;6199704;23;20343;-53
2022/01/27 08:00:56;;;;;;;36.67;24.20;;;4.90;99.90;;;;;;6199644;23;20397;-58
2022/01/27 08:03:22;;;;;;;37.20;24.70;;;4.90;99.90;;;;;;6200901;23;20446;-56
2022/01/27 08:05:47;;;;;;;35.42;24.23;;;4.90;99.90;;;;;;6201834;23;20809;-58
2022/01/27 08:08:13;;;;;;;37.93;23.87;;;4.90;99.90;;;;;;6200091;23;20581;-56
2022/01/27 08:10:38;;;;;;;35.37;24.27;;;5.00;99.90;;;;;;6201424;23;20409;-59
2022/01/27 08:13:05;;;;;;;34.63;24.33;;;4.90;99.90;;;;;;6207933;23;20356;-58
2022/01/27 08:15:31;;;;;;;34.45;23.83;;;5.00;99.90;;;;;;6211207;23;20402;-54
2022/01/27 08:17:57;;;;;;;34.50;22.77;;;5.00;99.90;;;;;;6210182;23;20430;-56
2022/01/27 08:20:23;;;;;;;33.90;22.60;;;5.00;99.90;;;;;;6209867;23;20422;-58
2022/01/27 08:22:51;;;;;;;29.93;20.87;;;5.00;99.90;;;;;;6210347;23;20653;-56
2022/01/27 08:25:18;;;;;;;33.37;21.67;;;5.00;99.90;;;;;;6210248;23;20413;-59
2022/01/27 08:27:46;;;;;;;32.35;21.38;;;5.00;99.90;;;;;;6211199;23;20454;-56
2022/01/27 08:30:15;;;;;;;32.20;21.50;;;5.00;99.90;;;;;;6210976;23;20355;-56
2022/01/27 08:32:57;;;;;;;31.27;20.77;;;5.00;99.90;;;;;;6211607;23;20383;-54
2022/01/27 08:35:23;;;;;;;30.40;19.50;;;5.00;99.90;;;;;;6212140;23;20452;-58
2022/01/27 08:37:50;;;;;;;24.73;18.60;;;5.10;99.90;;;;;;6212069;23;20354;-54
2022/01/27 08:40:16;;;;;;;27.25;18.95;;;5.10;99.90;;;;;;6211647;23;20677;-58
2022/01/27 08:42:43;;;;;;;29.88;19.50;;;5.10;99.90;;;;;;6213383;23;20614;-58
2022/01/27 08:45:15;;;;;;;27.88;18.15;;;5.10;99.90;;;;;;6213521;23;20352;-55
2022/01/27 08:47:42;;;;;;;26.97;17.87;;;5.10;99.90;;;;;;6213587;23;20435;-58
2022/01/27 08:50:09;;;;;;;27.70;18.60;;;5.10;99.90;;;;;;6210207;23;20367;-59
2022/01/27 08:52:35;;;;;;;27.13;18.33;;;5.10;99.90;;;;;;6210512;23;20378;-57
2022/01/27 08:55:01;;;;;;;27.02;18.88;;;5.10;99.90;;;;;;6211662;23;20743;-56
2022/01/27 08:57:27;;;;;;;27.33;18.85;;;5.10;99.90;;;;;;6204911;23;20405;-57
2022/01/27 08:59:53;;;;;;;25.73;17.77;;;5.10;99.90;;;;;;6203297;23;20438;-56
2022/01/27 09:02:20;;;;;;;28.63;18.05;;;5.20;99.90;;;;;;6204565;23;20343;-56
2022/01/27 09:04:45;;;;;;;26.15;18.58;;;5.20;99.90;;;;;;6203769;23;20753;-57
2022/01/27 09:07:11;;;;;;;25.33;17.67;;;5.20;99.90;;;;;;6202766;23;20414;-56
2022/01/27 09:09:36;;;;;;;23.43;17.03;;;5.30;99.90;;;;;;6202655;23;20383;-57
2022/01/27 09:12:02;;;;;;;25.38;17.35;;;5.30;99.90;;;;;;6201785;23;20343;-55
2022/01/27 09:14:30;;;;;;;23.42;16.90;;;5.30;99.90;;;;;;6202392;23;20428;-57
2022/01/27 09:16:57;;;;;;;23.88;16.60;;;5.30;99.90;;;;;;6201126;23;20371;-54
2022/01/27 09:19:25;;;;;;;27.17;16.42;;;5.30;99.90;;;;;;6199735;23;20538;-57
2022/01/27 09:21:53;;;;;;;23.92;16.25;;;5.30;99.90;;;;;;6201654;23;20776;-57
2022/01/27 09:24:25;;;;;;;21.92;16.10;;;5.30;99.90;;;;;;6203351;23;20421;-58
2022/01/27 09:26:58;;;;;;;21.67;15.63;;;5.40;99.90;;;;;;6204249;23;20362;-58
2022/01/27 09:29:24;;;;;;;21.95;15.48;;;5.40;99.90;;;;;;6205760;23;20578;-56
2022/01/27 09:31:50;;;;;;;20.13;14.68;;;5.40;99.90;;;;;;6203790;23;20346;-54
2022/01/27 09:34:16;;;;;;;22.33;14.50;;;5.40;99.90;;;;;;6204197;23;20523;-57
2022/01/27 09:36:42;;;;;;;22.52;14.93;;;5.40;99.90;;;;;;6204599;23;20375;-55
2022/01/27 09:39:09;;;;;;;18.15;13.90;;;5.50;99.90;;;;;;6201275;23;20405;-54
2022/01/27 09:41:38;;;;;;;18.00;13.35;;;5.50;99.90;;;;;;6202405;23;20622;-58
2022/01/27 09:44:04;;;;;;;17.52;12.30;;;5.50;99.90;;;;;;6201375;23;20433;-58
2022/01/27 09:46:31;;;;;;;16.73;12.82;;;5.50;99.90;;;;;;6204363;23;20354;-53
2022/01/27 09:48:58;;;;;;;16.92;12.85;;;5.50;99.90;;;;;;6210459;23;20999;-56
2022/01/27 09:51:27;;;;;;;17.08;12.65;;;5.50;99.90;;;;;;6208247;23;20994;-55
2022/01/27 09:53:55;;;;;;;17.30;12.27;;;5.50;99.90;;;;;;6210358;23;20359;-54
2022/01/27 09:56:21;;;;;;;17.00;12.00;;;5.50;99.90;;;;;;6211593;23;20831;-53
2022/01/27 09:58:47;;;;;;;16.50;11.52;;;5.60;99.90;;;;;;6210121;23;20356;-58
2022/01/27 10:01:13;;;;;;;16.23;11.40;;;5.60;99.90;;;;;;6211641;23;20374;-56
2022/01/27 10:03:56;;;;;;;13.67;10.40;;;5.60;99.90;;;;;;6210343;23;20348;-53
2022/01/27 10:06:27;;;;;;;14.98;10.93;;;5.70;99.90;;;;;;6212810;23;20343;-55
2022/01/27 10:09:11;;;;;;;14.35;10.50;;;5.70;99.90;;;;;;6211736;23;20429;-56
2022/01/27 10:11:37;;;;;;;14.35;10.23;;;5.70;99.90;;;;;;6211510;23;20358;-61
2022/01/27 10:14:37;;;;;;;13.60;10.17;;;5.70;99.90;;;;;;6214260;23;20355;-61
2022/01/27 10:17:13;;;;;;;12.43;9.52;;;6.00;99.90;;;;;;6147368;23;20394;-58
2022/01/27 10:19:39;;;;;;;15.20;9.60;;;5.90;99.90;;;;;;6208859;23;20430;-56
2022/01/27 10:22:09;;;;;;;14.47;9.90;;;5.90;99.90;;;;;;6207020;23;20489;-54
2022/01/27 10:24:35;;;;;;;18.05;10.23;;;5.90;99.90;;;;;;6207630;23;20356;-56
2022/01/27 10:32:51;;;;;;;18.33;10.73;;;5.90;99.90;;;;;;6212422;23;20438;-56
2022/01/27 10:35:20;;;;;;;17.33;11.60;;;6.00;99.90;;;;;;6211520;23;20433;-56
2022/01/27 10:38:05;;;;;;;18.52;11.75;;;6.00;99.90;;;;;;6211299;23;20607;-54
2022/01/27 10:40:37;;;;;;;18.60;11.07;;;6.00;99.90;;;;;;6212753;23;20426;-57
2022/01/27 10:43:05;;;;;;;24.35;12.30;;;6.10;99.90;;;;;;6211736;23;20488;-56
2022/01/27 10:45:31;;;;;;;21.73;11.60;;;6.10;99.90;;;;;;6211269;23;20366;-58
2022/01/27 10:48:14;;;;;;;21.33;12.48;;;6.10;99.90;;;;;;6211815;23;20386;-58
2022/01/27 10:50:50;;;;;;;22.70;11.43;;;6.20;99.90;;;;;;6209965;23;20783;-56
2022/01/27 10:53:18;;;;;;;24.13;11.82;;;6.20;99.90;;;;;;6209590;23;20746;-58
2022/01/27 10:55:45;;;;;;;25.63;11.65;;;6.30;99.90;;;;;;6208325;23;20367;-57
2022/01/27 10:58:26;;;;;;;26.73;12.07;;;6.40;99.90;;;;;;6208532;23;20423;-57
2022/01/27 11:01:00;;;;;;;22.97;11.97;;;6.40;99.90;;;;;;6209465;23;20422;-58
2022/01/27 11:03:28;;;;;;;28.92;13.05;;;6.50;99.90;;;;;;6208478;23;20611;-58
2022/01/27 11:05:56;;;;;;;25.85;12.68;;;6.50;99.90;;;;;;6210867;23;20344;-57
2022/01/27 11:08:24;;;;;;;28.57;12.77;;;6.60;99.90;;;;;;6207676;23;20772;-57
2022/01/27 11:10:50;;;;;;;32.95;13.25;;;6.60;99.90;;;;;;6206312;23;20765;-58
2022/01/27 11:13:22;;;;;;;30.93;13.23;;;6.60;99.90;;;;;;6207166;23;20538;-56
2022/01/27 11:15:48;;;;;;;25.38;11.75;;;6.70;99.90;;;;;;6209008;23;20368;-57
2022/01/27 11:18:15;;;;;;;29.03;12.70;;;6.70;99.90;;;;;;6208396;23;20348;-56
2022/01/27 11:26:10;;;;;;;31.48;11.18;;;6.80;99.90;;;;;;6209655;23;20354;-54
2022/01/27 11:28:37;;;;;;;35.45;12.07;;;6.80;99.90;;;;;;6209442;23;20442;-52
2022/01/27 11:31:21;;;;;;;41.38;11.15;;;6.90;99.90;;;;;;6209430;23;20361;-54
2022/01/27 11:34:03;;;;;;;40.83;10.55;;;6.90;99.90;;;;;;6210760;23;20359;-56
2022/01/27 11:36:30;;;;;;;35.37;10.07;;;6.90;99.90;;;;;;6210630;23;20379;-58
2022/01/27 11:38:57;;;;;;;34.70;9.98;;;7.00;99.90;;;;;;6211371;23;20375;-56
2022/01/27 11:41:40;;;;;;;35.03;9.77;;;7.00;99.90;;;;;;6209424;23;20351;-56
2022/01/27 11:44:25;;;;;;;38.03;10.07;;;7.00;99.90;;;;;;6209877;23;20374;-56
2022/01/27 11:47:16;;;;;;;35.85;9.25;;;7.10;99.90;;;;;;6209935;23;20415;-54
2022/01/27 11:50:01;;;;;;;34.05;8.13;;;7.10;99.90;;;;;;6207399;23;20368;-55
2022/01/27 11:52:46;;;;;;;41.13;8.88;;;7.10;99.90;;;;;;6205295;23;20351;-58
2022/01/27 11:55:23;;;;;;;41.88;8.45;;;7.20;99.90;;;;;;6205392;23;20379;-56
2022/01/27 11:57:52;;;;;;;40.35;9.32;;;7.20;99.90;;;;;;6206429;23;20756;-55
2022/01/27 12:00:29;;;;;;;33.27;7.73;;;7.30;99.90;;;;;;6207179;23;20348;-54
2022/01/27 12:03:01;;;;;;;32.53;7.63;;;7.40;99.90;;;;;;6209346;23;20360;-58
2022/01/27 12:05:28;;;;;;;38.10;8.03;;;7.50;99.90;;;;;;6207651;23;20378;-56
2022/01/27 12:08:23;;;;;;;38.58;7.70;;;7.60;99.90;;;;;;6184343;23;20406;-55
2022/01/27 12:10:59;;;;;;;29.10;6.88;;;7.60;99.90;;;;;;6204840;23;20642;-57
2022/01/27 12:13:48;;;;;;;27.88;6.50;;;7.60;99.90;;;;;;6209001;23;20421;-54
2022/01/27 12:19:10;;;;;;;28.48;6.50;;;7.90;99.90;;;;;;6208061;23;20383;-57
2022/01/27 12:22:05;;;;;;;30.53;6.23;;;7.90;99.90;;;;;;6206508;23;20395;-54
2022/01/27 12:24:32;;;;;;;33.78;7.10;;;8.00;99.90;;;;;;6204756;23;20368;-53
2022/01/27 12:27:03;;;;;;;27.45;6.68;;;8.00;99.90;;;;;;6207138;23;20382;-57
2022/01/27 12:29:53;;;;;;;27.88;6.38;;;8.00;99.90;;;;;;6209475;23;20783;-58
2022/01/27 12:32:32;;;;;;;30.67;6.78;;;7.90;99.90;;;;;;6210941;23;20906;-57
2022/01/27 12:35:10;;;;;;;28.00;6.80;;;8.00;99.90;;;;;;6184521;23;20391;-54
2022/01/27 12:37:46;;;;;;;32.45;6.68;;;8.10;99.90;;;;;;6208812;23;20431;-55
2022/01/27 12:40:21;;;;;;;28.13;6.28;;;8.30;99.90;;;;;;6180848;23;20929;-55
2022/01/27 12:42:57;;;;;;;27.92;6.72;;;8.40;99.90;;;;;;6205707;23;20990;-53
2022/01/27 12:45:27;;;;;;;31.65;6.75;;;8.20;99.90;;;;;;6205935;23;20374;-51
2022/01/27 12:47:56;;;;;;;38.10;6.90;;;8.10;99.90;;;;;;6205952;23;20347;-54
2022/01/27 12:50:35;;;;;;;24.17;5.95;;;8.10;99.90;;;;;;6205950;23;20347;-51
2022/01/27 12:53:08;;;;;;;27.43;6.60;;;8.10;99.90;;;;;;6208938;23;20375;-55
2022/01/27 12:55:38;;;;;;;28.48;6.40;;;8.10;99.90;;;;;;6205796;23;20375;-56
2022/01/27 12:58:09;;;;;;;32.55;6.22;;;8.10;99.90;;;;;;6180869;23;20359;-51
2022/01/27 13:00:50;;;;;;;22.80;6.25;;;8.10;99.90;;;;;;6207310;23;20446;-56
2022/01/27 13:03:17;;;;;;;28.42;6.50;;;8.30;99.90;;;;;;6206194;23;20418;-54
2022/01/27 13:05:48;;;;;;;28.40;6.72;;;8.30;99.90;;;;;;6206380;23;20374;-56
2022/01/27 13:08:17;;;;;;;27.77;6.03;;;8.40;99.90;;;;;;6182706;23;20414;-55
2022/01/27 13:10:54;;;;;;;27.52;6.07;;;8.50;99.90;;;;;;6208431;23;20347;-57
2022/01/27 13:13:25;;;;;;;24.58;5.82;;;8.30;99.90;;;;;;6206457;23;20371;-59
2022/01/27 13:16:04;;;;;;;34.10;6.60;;;8.30;99.90;;;;;;6185419;23;20379;-55
2022/01/27 13:18:47;;;;;;;23.60;5.72;;;8.30;99.90;;;;;;6212507;23;20340;-56
2022/01/27 13:21:29;;;;;;;26.08;5.93;;;8.30;99.90;;;;;;6213768;23;20374;-56
2022/01/27 13:24:13;;;;;;;28.42;5.97;;;8.30;99.90;;;;;;6212319;23;20366;-56
2022/01/27 13:26:44;;;;;;;27.33;6.32;;;8.20;99.90;;;;;;6212143;23;20370;-55
2022/01/27 13:29:09;;;;;;;26.48;5.88;;;8.20;99.90;;;;;;6211347;23;20421;-57
2022/01/27 13:31:35;;;;;;;21.17;5.30;;;8.20;99.90;;;;;;6210725;23;20359;-55
2022/01/27 13:34:02;;;;;;;24.90;5.53;;;8.20;99.90;;;;;;6212259;23;20387;-56
2022/01/27 13:36:28;;;;;;;27.43;6.13;;;8.20;99.90;;;;;;6208556;23;20437;-56
2022/01/27 13:41:32;;;;;;;22.08;5.15;;;8.30;99.90;;;;;;6212984;23;20363;-58
2022/01/27 13:44:12;;;;;;;22.17;5.60;;;8.40;99.90;;;;;;6206684;23;20805;-58
2022/01/27 13:46:49;;;;;;;23.58;5.68;;;8.40;99.90;;;;;;6209003;23;20363;-54